createdAt,value
2023-04-05T00:00:23.087Z,2.40
2023-04-05T00:02:49.761Z,2.27
2023-04-05T00:08:04.830Z,2.16
2023-04-05T00:10:31.833Z,2.25
2023-04-05T00:12:58.906Z,2.36
2023-04-05T00:15:27.380Z,2.18
2023-04-05T00:17:56.822Z,2.22
2023-04-05T00:20:23.515Z,2.08
2023-04-05T00:22:51.009Z,2.03
2023-04-05T00:27:49.955Z,2.20
2023-04-05T00:35:23.498Z,2.15
2023-04-05T00:37:50.150Z,2.24
2023-04-05T00:40:16.913Z,2.26
2023-04-05T00:45:20.912Z,2.08
2023-04-05T00:47:47.769Z,2.01
2023-04-05T00:52:54.601Z,2.14
2023-04-05T00:55:22.534Z,1.91
2023-04-05T01:00:23.173Z,2.22
2023-04-05T01:02:53.225Z,2.29
2023-04-05T01:05:42.375Z,2.37
2023-04-05T01:08:25.588Z,2.35
2023-04-05T01:10:57.352Z,2.45
2023-04-05T01:18:38.237Z,2.10
2023-04-05T01:21:23.430Z,2.10
2023-04-05T01:24:10.157Z,2.07
2023-04-05T01:27:22.252Z,2.13
2023-04-05T01:30:12.914Z,1.91
2023-04-05T01:38:25.520Z,1.86
2023-04-05T01:40:53.678Z,1.90
2023-04-05T01:43:20.467Z,1.92
2023-04-05T01:45:47.399Z,1.70
2023-04-05T01:50:51.273Z,1.57
2023-04-05T01:53:17.988Z,1.50
2023-04-05T01:55:44.743Z,1.58
2023-04-05T01:58:11.453Z,1.48
2023-04-05T02:00:38.167Z,1.51
2023-04-05T02:03:04.888Z,1.21
2023-04-05T02:05:31.635Z,1.15
2023-04-05T02:07:58.278Z,1.22
2023-04-05T02:10:25.015Z,1.37
2023-04-05T02:12:51.737Z,1.39
2023-04-05T02:15:18.429Z,1.30
2023-04-05T02:20:20.141Z,1.40
2023-04-05T02:22:47.380Z,1.22
2023-04-05T02:25:14.078Z,1.31
2023-04-05T02:27:41.456Z,1.18
2023-04-05T02:30:08.770Z,1.31
2023-04-05T02:32:35.576Z,1.44
2023-04-05T02:35:02.900Z,1.28
2023-04-05T02:37:29.697Z,1.29
2023-04-05T02:42:34.185Z,0.95
2023-04-05T02:45:01.378Z,1.04
2023-04-05T02:47:28.233Z,1.04
2023-04-05T02:49:54.937Z,1.07
2023-04-05T02:52:21.594Z,1.03
2023-04-05T02:54:48.271Z,0.82
2023-04-05T02:57:14.977Z,0.70
2023-04-05T02:59:42.814Z,0.82
2023-04-05T03:02:10.956Z,0.94
2023-04-05T03:04:38.905Z,0.95
2023-04-05T03:07:05.534Z,1.00
2023-04-05T03:09:38.815Z,1.02
2023-04-05T03:12:05.669Z,1.23
2023-04-05T03:14:34.602Z,1.00
2023-04-05T03:17:01.521Z,0.84
2023-04-05T03:19:28.228Z,0.85
2023-04-05T03:24:28.575Z,0.82
2023-04-05T03:26:55.384Z,0.77
2023-04-05T03:29:22.014Z,0.78
2023-04-05T03:31:51.200Z,0.83
2023-04-05T03:34:17.876Z,0.95
2023-04-05T03:36:44.535Z,0.77
2023-04-05T03:39:14.074Z,0.93
2023-04-05T03:41:41.414Z,0.95
2023-04-05T03:46:40.598Z,0.98
2023-04-05T03:49:07.842Z,1.07
2023-04-05T03:51:34.646Z,1.10
2023-04-05T03:54:01.345Z,1.12
2023-04-05T03:56:28.034Z,1.04
2023-04-05T03:58:54.851Z,0.88
2023-04-05T04:01:22.314Z,0.92
2023-04-05T04:03:48.955Z,1.08
2023-04-05T04:06:17.867Z,1.07
2023-04-05T04:08:45.980Z,0.94
2023-04-05T04:11:12.707Z,0.83
2023-04-05T04:13:39.377Z,0.48
2023-04-05T04:18:38.151Z,0.52
2023-04-05T04:21:08.133Z,0.58
2023-04-05T04:23:38.788Z,0.68
2023-04-05T04:26:06.246Z,0.71
2023-04-05T04:28:35.112Z,0.82
2023-04-05T04:31:05.242Z,0.78
2023-04-05T04:36:13.850Z,0.62
2023-04-05T04:41:22.947Z,0.58
2023-04-05T04:43:49.663Z,0.50
2023-04-05T04:46:16.456Z,0.50
2023-04-05T04:48:43.221Z,0.47
2023-04-05T04:53:41.127Z,0.30
2023-04-05T04:56:09.005Z,0.23
2023-04-05T04:58:36.091Z,0.27
2023-04-05T05:01:09.173Z,0.23
2023-04-05T05:03:37.836Z,0.61
2023-04-05T05:06:05.070Z,0.73
2023-04-05T05:13:42.218Z,0.59
2023-04-05T05:18:41.963Z,0.52
2023-04-05T05:23:42.374Z,0.55
2023-04-05T05:28:40.860Z,0.29
2023-04-05T05:31:07.530Z,0.50
2023-04-05T05:33:34.485Z,0.43
2023-04-05T05:36:01.220Z,0.62
2023-04-05T05:38:27.929Z,0.65
2023-04-05T05:40:58.346Z,0.82
2023-04-05T05:43:25.129Z,0.98
2023-04-05T05:45:51.944Z,0.80
2023-04-05T05:48:18.938Z,0.97
2023-04-05T05:50:48.961Z,0.77
2023-04-05T05:53:16.577Z,0.95
2023-04-05T05:55:43.434Z,0.73
2023-04-05T05:58:10.133Z,0.80
2023-04-05T06:00:36.853Z,0.65
2023-04-05T06:03:04.831Z,0.68
2023-04-05T06:05:32.091Z,0.67
2023-04-05T06:07:58.754Z,0.71
2023-04-05T06:10:25.847Z,0.72
2023-04-05T06:12:52.543Z,0.50
2023-04-05T06:15:19.501Z,0.60
2023-04-05T06:17:46.227Z,0.73
2023-04-05T06:20:13.096Z,1.10
2023-04-05T06:22:41.468Z,0.93
2023-04-05T06:25:09.119Z,1.03
2023-04-05T06:27:36.198Z,0.96
2023-04-05T06:30:03.940Z,1.00
2023-04-05T06:32:30.595Z,1.19
2023-04-05T06:34:57.244Z,1.21
2023-04-05T06:37:24.047Z,1.28
2023-04-05T06:39:50.942Z,1.39
2023-04-05T06:42:17.661Z,1.61
2023-04-05T06:44:45.009Z,1.91
2023-04-05T06:49:45.143Z,2.59
2023-04-05T06:52:11.775Z,2.96
2023-04-05T06:54:39.365Z,3.30
2023-04-05T06:57:06.103Z,3.42
2023-04-05T06:59:33.141Z,3.40
2023-04-05T07:01:59.982Z,3.23
2023-04-05T07:04:27.705Z,3.18
2023-04-05T07:06:54.415Z,3.66
2023-04-05T07:09:22.472Z,3.95
2023-04-05T07:11:49.108Z,4.27
2023-04-05T07:14:15.754Z,4.48
2023-04-05T07:16:42.399Z,4.38
2023-04-05T07:19:09.100Z,4.66
2023-04-05T07:24:08.921Z,4.68
2023-04-05T07:26:37.642Z,4.78
2023-04-05T07:29:06.568Z,4.88
2023-04-05T07:31:33.302Z,5.43
2023-04-05T07:34:01.397Z,5.53
2023-04-05T07:36:30.919Z,5.81
2023-04-05T07:38:58.360Z,6.06
2023-04-05T07:41:26.434Z,6.26
2023-04-05T07:43:53.173Z,6.15
2023-04-05T07:46:20.681Z,6.19
2023-04-05T07:48:48.725Z,6.26
2023-04-05T07:53:52.901Z,6.64
2023-04-05T07:56:19.588Z,6.79
2023-04-05T07:58:47.745Z,7.38
2023-04-05T08:01:14.427Z,7.70
2023-04-05T08:03:41.202Z,7.86
2023-04-05T08:06:17.796Z,8.19
2023-04-05T08:08:45.689Z,8.42
2023-04-05T08:11:12.847Z,8.65
2023-04-05T08:13:43.090Z,8.72
2023-04-05T08:16:10.675Z,9.03
2023-04-05T08:18:38.096Z,8.96
2023-04-05T08:21:04.813Z,8.52
2023-04-05T08:23:32.314Z,8.79
2023-04-05T08:25:58.932Z,9.10
2023-04-05T08:28:25.773Z,8.68
2023-04-05T08:30:56.707Z,8.56
2023-04-05T08:33:24.148Z,9.20
2023-04-05T08:35:51.474Z,9.02
2023-04-05T08:38:18.482Z,8.92
2023-04-05T08:40:46.956Z,9.10
2023-04-05T08:43:38.671Z,8.81
2023-04-05T08:46:09.737Z,9.24
2023-04-05T08:48:38.217Z,9.19
2023-04-05T08:51:06.204Z,9.32
2023-04-05T08:53:33.580Z,9.19
2023-04-05T08:56:01.690Z,9.31
2023-04-05T08:58:29.079Z,9.22
2023-04-05T09:00:56.699Z,9.41
2023-04-05T09:03:27.156Z,9.38
2023-04-05T09:05:54.129Z,9.42
2023-04-05T09:08:23.887Z,9.86
2023-04-05T09:10:54.443Z,10.12
2023-04-05T09:13:21.378Z,9.09
2023-04-05T09:15:49.027Z,9.45
2023-04-05T09:18:26.323Z,9.50
2023-04-05T09:21:06.594Z,9.94
2023-04-05T09:23:37.235Z,10.42
2023-04-05T09:26:18.557Z,10.39
2023-04-05T09:28:45.395Z,10.36
2023-04-05T09:31:30.727Z,10.42
2023-04-05T09:34:04.790Z,10.39
2023-04-05T09:36:34.057Z,10.64
2023-04-05T09:39:08.278Z,11.02
2023-04-05T09:41:36.061Z,11.32
2023-04-05T09:44:03.001Z,11.34
2023-04-05T09:46:38.437Z,9.46
2023-04-05T09:49:07.349Z,10.07
2023-04-05T09:54:11.504Z,10.97
2023-04-05T09:56:53.579Z,11.17
2023-04-05T09:59:20.454Z,11.67
2023-04-05T10:01:51.909Z,11.28
2023-04-05T10:04:21.890Z,11.04
2023-04-05T10:06:48.820Z,11.53
2023-04-05T10:09:15.829Z,11.64
2023-04-05T10:11:44.107Z,11.46
2023-04-05T10:14:10.850Z,11.57
2023-04-05T10:16:52.493Z,12.20
2023-04-05T10:20:05.874Z,12.23
2023-04-05T10:22:41.263Z,12.66
2023-04-05T10:25:23.672Z,11.85
2023-04-05T10:28:11.484Z,12.25
2023-04-05T10:30:44.885Z,12.36
2023-04-05T10:33:22.735Z,12.78
2023-04-05T10:36:08.651Z,12.69
2023-04-05T10:38:51.799Z,12.99
2023-04-05T10:41:18.737Z,13.03
2023-04-05T10:46:21.765Z,13.17
2023-04-05T10:49:32.581Z,13.30
2023-04-05T10:51:59.625Z,13.11
2023-04-05T10:54:27.443Z,13.34
2023-04-05T10:56:55.157Z,13.44
2023-04-05T10:59:22.844Z,12.93
2023-04-05T11:01:50.358Z,13.54
2023-04-05T11:04:17.964Z,13.83
2023-04-05T11:06:48.343Z,13.86
2023-04-05T11:09:21.905Z,14.17
2023-04-05T11:11:50.762Z,13.50
2023-04-05T11:14:37.354Z,13.54
2023-04-05T11:19:50.358Z,13.15
2023-04-05T11:25:04.781Z,13.81
2023-04-05T11:27:41.170Z,14.18
2023-04-05T11:30:08.477Z,14.04
2023-04-05T11:32:45.967Z,14.15
2023-04-05T11:35:23.583Z,13.96
2023-04-05T11:38:06.390Z,13.87
2023-04-05T11:40:37.775Z,14.41
2023-04-05T11:43:10.417Z,14.42
2023-04-05T11:45:38.906Z,14.70
2023-04-05T11:48:07.692Z,14.95
2023-04-05T11:50:35.923Z,14.74
2023-04-05T11:53:12.271Z,14.74
2023-04-05T11:55:41.169Z,14.76
2023-04-05T11:58:18.319Z,15.00
2023-04-05T12:00:46.757Z,15.01
2023-04-05T12:03:17.878Z,15.05
2023-04-05T12:05:48.109Z,14.81
2023-04-05T12:08:14.907Z,14.75
2023-04-05T12:13:29.486Z,15.15
2023-04-05T12:16:04.578Z,15.15
2023-04-05T12:18:33.049Z,15.21
2023-04-05T12:21:01.478Z,15.08
2023-04-05T12:26:08.469Z,14.70
2023-04-05T12:28:54.193Z,14.28
2023-04-05T12:31:43.698Z,14.25
2023-04-05T12:36:46.362Z,13.31
2023-04-05T12:39:13.185Z,12.77
2023-04-05T12:41:40.150Z,12.59
2023-04-05T12:44:14.973Z,12.70
2023-04-05T12:46:43.249Z,13.42
2023-04-05T12:49:16.813Z,13.30
2023-04-05T12:51:45.140Z,13.41
2023-04-05T12:54:13.642Z,13.18
2023-04-05T12:56:40.679Z,12.92
2023-04-05T12:59:08.146Z,13.37
2023-04-05T13:01:35.268Z,13.42
2023-04-05T13:04:14.553Z,13.78
2023-04-05T13:06:43.468Z,13.50
2023-04-05T13:09:10.218Z,13.77
2023-04-05T13:11:36.987Z,13.99
2023-04-05T13:14:03.675Z,14.14
2023-04-05T13:16:30.379Z,14.01
2023-04-05T13:18:57.076Z,14.03
2023-04-05T13:21:23.748Z,14.31
2023-04-05T13:23:50.503Z,14.15
2023-04-05T13:26:17.239Z,14.13
2023-04-05T13:28:43.933Z,14.11
2023-04-05T13:31:11.681Z,13.60
2023-04-05T13:33:39.679Z,13.50
2023-04-05T13:36:06.684Z,13.29
2023-04-05T13:38:33.470Z,13.59
2023-04-05T13:41:00.184Z,13.79
2023-04-05T13:43:28.194Z,13.56
2023-04-05T13:45:54.892Z,13.61
2023-04-05T13:48:21.576Z,13.44
2023-04-05T13:50:48.447Z,13.34
2023-04-05T13:53:15.187Z,13.28
2023-04-05T13:55:41.983Z,13.31
2023-04-05T13:58:08.802Z,13.10
2023-04-05T14:00:35.691Z,13.22
2023-04-05T14:03:02.528Z,13.35
2023-04-05T14:05:29.258Z,13.21
2023-04-05T14:07:56.112Z,13.12
2023-04-05T14:10:24.110Z,13.23
2023-04-05T14:15:23.892Z,12.98
2023-04-05T14:17:50.623Z,12.64
2023-04-05T14:20:17.442Z,12.69
2023-04-05T14:22:44.152Z,12.71
2023-04-05T14:25:11.014Z,12.70
2023-04-05T14:27:42.417Z,12.74
2023-04-05T14:32:42.745Z,12.67
2023-04-05T14:35:09.671Z,12.70
2023-04-05T14:37:36.759Z,12.94
2023-04-05T14:40:03.588Z,12.95
2023-04-05T14:42:45.249Z,12.82
2023-04-05T14:45:15.690Z,12.76
2023-04-05T14:47:42.409Z,12.80
2023-04-05T14:50:09.650Z,12.89
2023-04-05T14:52:36.532Z,12.83
2023-04-05T14:55:03.363Z,12.85
2023-04-05T15:00:09.473Z,12.91
2023-04-05T15:05:15.706Z,12.54
2023-04-05T15:07:42.393Z,12.56
2023-04-05T15:10:09.430Z,12.67
2023-04-05T15:12:36.300Z,12.65
2023-04-05T15:15:03.134Z,12.53
2023-04-05T15:17:29.818Z,12.69
2023-04-05T15:19:56.506Z,12.60
2023-04-05T15:22:23.774Z,12.64
2023-04-05T15:24:50.461Z,12.58
2023-04-05T15:27:17.143Z,12.67
2023-04-05T15:29:43.856Z,12.44
2023-04-05T15:32:10.526Z,12.35
2023-04-05T15:34:37.157Z,12.29
2023-04-05T15:37:03.849Z,12.01
2023-04-05T15:39:30.601Z,11.99
2023-04-05T15:41:58.075Z,12.06
2023-04-05T15:44:24.804Z,12.09
2023-04-05T15:46:51.554Z,11.76
2023-04-05T15:49:18.346Z,11.67
2023-04-05T15:51:45.164Z,12.11
2023-04-05T15:54:16.892Z,11.84
2023-04-05T15:56:43.539Z,12.09
2023-04-05T15:59:10.346Z,11.92
2023-04-05T16:01:38.088Z,11.82
2023-04-05T16:04:05.156Z,11.65
2023-04-05T16:06:32.185Z,11.48
2023-04-05T16:08:59.796Z,11.45
2023-04-05T16:11:26.960Z,11.88
2023-04-05T16:13:54.179Z,11.65
2023-04-05T16:18:52.718Z,11.92
2023-04-05T16:21:19.530Z,11.68
2023-04-05T16:23:46.776Z,11.52
2023-04-05T16:26:14.087Z,11.30
2023-04-05T16:28:41.484Z,12.01
2023-04-05T16:31:08.176Z,11.57
2023-04-05T16:36:13.293Z,11.17
2023-04-05T16:38:41.766Z,10.93
2023-04-05T16:41:08.688Z,10.68
2023-04-05T16:43:35.419Z,10.46
2023-04-05T16:46:02.148Z,10.56
2023-04-05T16:48:30.819Z,10.45
2023-04-05T16:50:57.624Z,10.37
2023-04-05T16:53:24.939Z,10.45
2023-04-05T16:58:30.054Z,10.40
2023-04-05T17:01:00.544Z,10.18
2023-04-05T17:03:27.606Z,9.88
2023-04-05T17:05:54.441Z,9.92
2023-04-05T17:10:54.414Z,9.90
2023-04-05T17:13:21.398Z,9.91
2023-04-05T17:18:20.875Z,9.70
2023-04-05T17:20:47.525Z,9.64
2023-04-05T17:25:45.622Z,9.45
2023-04-05T17:28:13.311Z,9.54
2023-04-05T17:30:40.030Z,9.44
2023-04-05T17:33:06.770Z,9.31
2023-04-05T17:35:33.488Z,9.23
2023-04-05T17:38:00.375Z,9.19
2023-04-05T17:40:27.372Z,9.04
2023-04-05T17:42:54.028Z,9.04
2023-04-05T17:50:37.452Z,8.82
2023-04-05T17:53:04.210Z,8.90
2023-04-05T17:55:33.508Z,8.89
2023-04-05T17:58:00.501Z,8.82
2023-04-05T18:00:27.264Z,8.74
2023-04-05T18:02:54.244Z,8.61
2023-04-05T18:05:21.096Z,8.71
2023-04-05T18:07:47.900Z,8.64
2023-04-05T18:12:52.589Z,8.49
2023-04-05T18:15:19.220Z,8.37
2023-04-05T18:17:45.951Z,8.21
2023-04-05T18:20:13.543Z,8.08
2023-04-05T18:22:40.298Z,8.04
2023-04-05T18:25:08.914Z,7.90
2023-04-05T18:30:07.640Z,8.00
2023-04-05T18:32:34.275Z,7.89
2023-04-05T18:37:32.528Z,7.67
2023-04-05T18:39:59.352Z,7.58
2023-04-05T18:42:26.080Z,7.56
2023-04-05T18:44:52.760Z,7.45
2023-04-05T18:47:19.465Z,7.40
2023-04-05T18:49:46.222Z,7.44
2023-04-05T18:52:12.878Z,7.53
2023-04-05T18:54:39.956Z,7.50
2023-04-05T18:57:07.559Z,7.55
2023-04-05T18:59:34.288Z,7.59
2023-04-05T19:04:35.425Z,7.35
2023-04-05T19:09:33.824Z,7.42
2023-04-05T19:12:00.478Z,7.21
2023-04-05T19:14:27.188Z,7.36
2023-04-05T19:16:53.879Z,7.08
2023-04-05T19:19:20.589Z,7.25
2023-04-05T19:21:47.273Z,7.38
2023-04-05T19:24:15.239Z,7.22
2023-04-05T19:26:45.332Z,7.06
2023-04-05T19:29:12.057Z,6.86
2023-04-05T19:31:40.055Z,6.69
2023-04-05T19:34:07.527Z,6.79
2023-04-05T19:36:38.322Z,6.85
2023-04-05T19:39:06.750Z,6.74
2023-04-05T19:41:33.663Z,6.51
2023-04-05T19:44:00.919Z,6.49
2023-04-05T19:46:31.223Z,6.26
2023-04-05T19:49:07.643Z,6.16
2023-04-05T19:51:36.024Z,6.13
2023-04-05T19:54:09.292Z,6.27
2023-04-05T19:56:37.487Z,6.24
2023-04-05T19:59:25.336Z,6.09
2023-04-05T20:01:52.088Z,6.06
2023-04-05T20:04:20.862Z,5.83
2023-04-05T20:06:53.368Z,5.80
2023-04-05T20:09:22.087Z,5.72
2023-04-05T20:11:59.864Z,5.78
2023-04-05T20:14:48.182Z,5.75
2023-04-05T20:17:17.489Z,5.38
2023-04-05T20:20:01.215Z,5.22
2023-04-05T20:22:29.226Z,5.37
2023-04-05T20:24:55.910Z,5.38
2023-04-05T20:27:22.625Z,5.46
2023-04-05T20:29:49.350Z,5.35
2023-04-05T20:32:17.432Z,5.12
2023-04-05T20:34:46.486Z,5.23
2023-04-05T20:37:13.714Z,5.26
2023-04-05T20:39:40.533Z,5.22
2023-04-05T20:42:09.536Z,5.32
2023-04-05T20:44:36.555Z,5.03
2023-04-05T20:47:03.346Z,4.96
2023-04-05T20:49:30.043Z,5.27
2023-04-05T20:51:57.792Z,5.07
2023-04-05T20:54:24.818Z,5.04
2023-04-05T20:56:51.569Z,5.07
2023-04-05T20:59:18.318Z,4.75
2023-04-05T21:04:19.489Z,4.71
2023-04-05T21:06:46.276Z,4.87
2023-04-05T21:09:12.918Z,4.81
2023-04-05T21:11:39.512Z,4.85
2023-04-05T21:14:06.180Z,4.93
2023-04-05T21:16:32.856Z,5.02
2023-04-05T21:18:59.602Z,5.00
2023-04-05T21:21:26.487Z,4.91
2023-04-05T21:23:53.154Z,4.62
2023-04-05T21:26:19.854Z,4.95
2023-04-05T21:28:46.606Z,4.52
2023-04-05T21:31:13.255Z,4.34
2023-04-05T21:33:39.997Z,4.46
2023-04-05T21:36:06.878Z,4.34
2023-04-05T21:38:33.562Z,4.33
2023-04-05T21:41:00.167Z,4.01
2023-04-05T21:43:26.817Z,3.90
2023-04-05T21:45:53.484Z,4.23
2023-04-05T21:48:20.375Z,4.34
2023-04-05T21:50:47.148Z,4.22
2023-04-05T21:53:14.808Z,4.10
2023-04-05T21:55:41.502Z,4.04
2023-04-05T21:58:08.204Z,4.05
2023-04-05T22:00:34.932Z,3.98
2023-04-05T22:05:40.034Z,3.96
2023-04-05T22:08:07.520Z,4.06
2023-04-05T22:10:35.722Z,3.99
2023-04-05T22:13:02.510Z,3.69
2023-04-05T22:15:29.227Z,3.61
2023-04-05T22:17:56.019Z,3.81
2023-04-05T22:20:22.709Z,3.58
2023-04-05T22:22:49.416Z,3.78
2023-04-05T22:25:16.168Z,3.66
2023-04-05T22:27:42.837Z,3.55
2023-04-05T22:30:09.730Z,3.85
2023-04-05T22:32:36.929Z,3.85
2023-04-05T22:35:04.715Z,3.71
2023-04-05T22:37:36.037Z,3.52
2023-04-05T22:40:05.277Z,3.61
2023-04-05T22:42:32.217Z,3.30
2023-04-05T22:44:58.996Z,3.34
2023-04-05T22:47:25.745Z,3.57
2023-04-05T22:52:23.889Z,3.46
2023-04-05T22:54:50.816Z,3.37
2023-04-05T22:57:17.484Z,3.51
2023-04-05T22:59:44.166Z,3.70
2023-04-05T23:02:12.641Z,3.78
2023-04-05T23:04:39.665Z,3.84
2023-04-05T23:07:06.477Z,3.93
2023-04-05T23:09:33.133Z,3.66
2023-04-05T23:11:59.786Z,3.61
2023-04-05T23:14:27.422Z,3.56
2023-04-05T23:16:54.156Z,3.55
2023-04-05T23:19:20.842Z,3.80
2023-04-05T23:21:47.558Z,3.53
2023-04-05T23:24:14.206Z,3.59
2023-04-05T23:26:41.116Z,3.55
2023-04-05T23:31:39.045Z,3.43
2023-04-05T23:34:05.698Z,3.41
2023-04-05T23:36:32.726Z,3.48
2023-04-05T23:39:00.293Z,3.43
2023-04-05T23:44:00.079Z,3.29
2023-04-05T23:46:26.790Z,3.12
2023-04-05T23:48:53.443Z,3.16
2023-04-05T23:51:20.079Z,3.14
2023-04-05T23:53:46.799Z,3.27
2023-04-05T23:56:13.423Z,3.01
2023-04-05T23:58:42.402Z,3.00
